sensor_id;sensor_type;location;lat;lon;timestamp;pressure;altitude;pressure_sealevel;temperature;humidity
63204;BME280;49297;43.210;27.914;2023-10-09T00:01:06;101883.31;;;16.10;44.20
63204;BME280;49297;43.210;27.914;2023-10-09T00:03:43;101872.94;;;16.07;44.45
63204;BME280;49297;43.210;27.914;2023-10-09T00:06:09;101870.25;;;16.07;44.44
63204;BME280;49297;43.210;27.914;2023-10-09T00:08:42;101872.94;;;16.07;44.40
63204;BME280;49297;43.210;27.914;2023-10-09T00:11:13;101873.06;;;16.06;44.27
63204;BME280;49297;43.210;27.914;2023-10-09T00:13:46;101866.19;;;16.03;43.99
63204;BME280;49297;43.210;27.914;2023-10-09T00:16:16;101867.31;;;16.01;44.16
63204;BME280;49297;43.210;27.914;2023-10-09T00:18:42;101874.63;;;15.98;44.22
63204;BME280;49297;43.210;27.914;2023-10-09T00:21:16;101860.59;;;15.96;44.94
63204;BME280;49297;43.210;27.914;2023-10-09T00:23:42;101857.91;;;15.96;44.95
63204;BME280;49297;43.210;27.914;2023-10-09T00:26:09;101860.44;;;15.98;44.96
63204;BME280;49297;43.210;27.914;2023-10-09T00:28:36;101858.47;;;16.00;45.03
63204;BME280;49297;43.210;27.914;2023-10-09T00:31:06;101855.66;;;16.02;45.11
63204;BME280;49297;43.210;27.914;2023-10-09T00:33:36;101859.84;;;16.04;44.83
63204;BME280;49297;43.210;27.914;2023-10-09T00:36:03;101868.59;;;16.06;44.62
63204;BME280;49297;43.210;27.914;2023-10-09T00:38:36;101857.34;;;16.03;44.58
63204;BME280;49297;43.210;27.914;2023-10-09T00:41:05;101856.63;;;16.01;44.33
63204;BME280;49297;43.210;27.914;2023-10-09T00:43:34;101863.66;;;16.02;44.51
63204;BME280;49297;43.210;27.914;2023-10-09T00:46:03;101854.81;;;16.01;44.25
63204;BME280;49297;43.210;27.914;2023-10-09T00:48:33;101846.94;;;15.99;44.15
63204;BME280;49297;43.210;27.914;2023-10-09T00:51:06;101836.69;;;15.95;43.72
63204;BME280;49297;43.210;27.914;2023-10-09T00:53:47;101831.34;;;15.95;43.41
63204;BME280;49297;43.210;27.914;2023-10-09T00:56:21;101833.19;;;15.94;43.47
63204;BME280;49297;43.210;27.914;2023-10-09T00:58:52;101840.78;;;15.89;43.41
63204;BME280;49297;43.210;27.914;2023-10-09T01:01:22;101843.59;;;15.88;43.45
63204;BME280;49297;43.210;27.914;2023-10-09T01:03:53;101855.44;;;15.85;43.86
63204;BME280;49297;43.210;27.914;2023-10-09T01:06:19;101862.44;;;15.86;43.36
63204;BME280;49297;43.210;27.914;2023-10-09T01:08:58;101860.91;;;15.84;43.58
63204;BME280;49297;43.210;27.914;2023-10-09T01:11:37;101858.53;;;15.80;43.51
63204;BME280;49297;43.210;27.914;2023-10-09T01:14:32;101840.13;;;15.77;43.15
63204;BME280;49297;43.210;27.914;2023-10-09T01:17:06;101848.16;;;15.77;42.99
63204;BME280;49297;43.210;27.914;2023-10-09T01:19:35;101851.94;;;15.75;42.98
63204;BME280;49297;43.210;27.914;2023-10-09T01:22:01;101857.66;;;15.70;42.90
63204;BME280;49297;43.210;27.914;2023-10-09T01:24:38;101860.78;;;15.66;42.84
63204;BME280;49297;43.210;27.914;2023-10-09T01:27:06;101867.22;;;15.63;42.72
63204;BME280;49297;43.210;27.914;2023-10-09T01:29:41;101868.94;;;15.64;43.09
63204;BME280;49297;43.210;27.914;2023-10-09T01:32:08;101879.75;;;15.63;42.79
63204;BME280;49297;43.210;27.914;2023-10-09T01:34:42;101877.22;;;15.61;42.82
63204;BME280;49297;43.210;27.914;2023-10-09T01:37:15;101895.19;;;15.59;43.19
63204;BME280;49297;43.210;27.914;2023-10-09T01:39:52;101899.69;;;15.58;42.91
63204;BME280;49297;43.210;27.914;2023-10-09T01:42:19;101890.13;;;15.56;43.13
63204;BME280;49297;43.210;27.914;2023-10-09T01:45:00;101903.34;;;15.57;43.03
63204;BME280;49297;43.210;27.914;2023-10-09T01:47:36;101910.50;;;15.57;42.86
63204;BME280;49297;43.210;27.914;2023-10-09T01:50:07;101928.63;;;15.53;43.29
63204;BME280;49297;43.210;27.914;2023-10-09T01:52:45;101941.28;;;15.51;43.20
63204;BME280;49297;43.210;27.914;2023-10-09T01:55:11;101937.63;;;15.42;43.49
63204;BME280;49297;43.210;27.914;2023-10-09T01:58:07;101935.94;;;15.32;43.63
63204;BME280;49297;43.210;27.914;2023-10-09T02:00:48;101932.00;;;15.26;44.20
63204;BME280;49297;43.210;27.914;2023-10-09T02:03:15;101926.81;;;15.25;44.48
63204;BME280;49297;43.210;27.914;2023-10-09T02:05:44;101915.44;;;15.22;44.15
63204;BME280;49297;43.210;27.914;2023-10-09T02:08:10;101938.31;;;15.15;43.88
63204;BME280;49297;43.210;27.914;2023-10-09T02:10:37;101923.66;;;15.10;44.34
63204;BME280;49297;43.210;27.914;2023-10-09T02:13:06;101932.69;;;15.09;44.07
63204;BME280;49297;43.210;27.914;2023-10-09T02:15:38;101949.66;;;15.08;44.16
63204;BME280;49297;43.210;27.914;2023-10-09T02:18:20;101945.31;;;15.07;44.50
63204;BME280;49297;43.210;27.914;2023-10-09T02:23:32;101958.06;;;15.03;44.47
63204;BME280;49297;43.210;27.914;2023-10-09T02:26:07;101973.63;;;14.98;44.67
63204;BME280;49297;43.210;27.914;2023-10-09T02:28:35;101990.47;;;14.98;44.61
63204;BME280;49297;43.210;27.914;2023-10-09T02:31:09;102001.84;;;15.00;45.09
63204;BME280;49297;43.210;27.914;2023-10-09T02:33:36;102000.88;;;15.01;44.57
63204;BME280;49297;43.210;27.914;2023-10-09T02:36:06;102003.13;;;15.06;44.92
63204;BME280;49297;43.210;27.914;2023-10-09T02:38:33;101996.81;;;15.07;44.23
63204;BME280;49297;43.210;27.914;2023-10-09T02:41:03;101991.47;;;15.07;44.09
63204;BME280;49297;43.210;27.914;2023-10-09T02:43:31;101993.31;;;15.07;44.00
63204;BME280;49297;43.210;27.914;2023-10-09T02:46:19;102006.78;;;15.05;44.12
63204;BME280;49297;43.210;27.914;2023-10-09T02:48:46;102014.91;;;15.03;43.69
63204;BME280;49297;43.210;27.914;2023-10-09T02:51:19;102017.72;;;15.02;44.42
63204;BME280;49297;43.210;27.914;2023-10-09T02:53:59;102025.13;;;14.98;44.31
63204;BME280;49297;43.210;27.914;2023-10-09T02:56:32;102024.16;;;14.99;44.59
63204;BME280;49297;43.210;27.914;2023-10-09T02:59:24;102024.44;;;14.96;44.66
63204;BME280;49297;43.210;27.914;2023-10-09T03:01:50;102012.22;;;14.94;44.92
63204;BME280;49297;43.210;27.914;2023-10-09T03:04:18;102005.59;;;14.88;45.26
63204;BME280;49297;43.210;27.914;2023-10-09T03:06:45;102012.88;;;14.86;45.39
63204;BME280;49297;43.210;27.914;2023-10-09T03:09:17;102022.25;;;14.80;45.18
63204;BME280;49297;43.210;27.914;2023-10-09T03:11:45;102039.91;;;14.72;45.10
63204;BME280;49297;43.210;27.914;2023-10-09T03:14:12;102038.34;;;14.69;45.59
63204;BME280;49297;43.210;27.914;2023-10-09T03:16:38;102040.31;;;14.67;45.34
63204;BME280;49297;43.210;27.914;2023-10-09T03:19:04;102046.34;;;14.69;45.29
63204;BME280;49297;43.210;27.914;2023-10-09T03:21:29;102037.34;;;14.70;44.66
63204;BME280;49297;43.210;27.914;2023-10-09T03:23:55;102034.69;;;14.70;44.10
63204;BME280;49297;43.210;27.914;2023-10-09T03:26:22;102038.34;;;14.69;43.79
63204;BME280;49297;43.210;27.914;2023-10-09T03:28:51;102047.31;;;14.68;43.13
63204;BME280;49297;43.210;27.914;2023-10-09T03:31:18;102050.81;;;14.69;42.64
63204;BME280;49297;43.210;27.914;2023-10-09T03:33:44;102064.13;;;14.69;41.83
63204;BME280;49297;43.210;27.914;2023-10-09T03:36:09;102067.34;;;14.62;41.58
63204;BME280;49297;43.210;27.914;2023-10-09T03:38:36;102063.97;;;14.60;40.76
63204;BME280;49297;43.210;27.914;2023-10-09T03:41:05;102062.41;;;14.58;40.29
63204;BME280;49297;43.210;27.914;2023-10-09T03:43:33;102061.66;;;14.56;39.97
63204;BME280;49297;43.210;27.914;2023-10-09T03:46:04;102077.78;;;14.54;40.24
63204;BME280;49297;43.210;27.914;2023-10-09T03:48:31;102083.09;;;14.54;40.09
63204;BME280;49297;43.210;27.914;2023-10-09T03:51:02;102095.47;;;14.55;39.82
63204;BME280;49297;43.210;27.914;2023-10-09T03:53:37;102106.25;;;14.54;39.75
63204;BME280;49297;43.210;27.914;2023-10-09T03:56:07;102098.25;;;14.54;40.32
63204;BME280;49297;43.210;27.914;2023-10-09T03:58:43;102099.84;;;14.56;40.10
63204;BME280;49297;43.210;27.914;2023-10-09T04:01:14;102105.03;;;14.58;39.96
63204;BME280;49297;43.210;27.914;2023-10-09T04:03:53;102109.50;;;14.57;39.33
63204;BME280;49297;43.210;27.914;2023-10-09T04:06:27;102102.50;;;14.56;39.18
63204;BME280;49297;43.210;27.914;2023-10-09T04:09:02;102102.75;;;14.53;39.26
63204;BME280;49297;43.210;27.914;2023-10-09T04:11:49;102107.38;;;14.51;38.80
63204;BME280;49297;43.210;27.914;2023-10-09T04:14:33;102122.50;;;14.51;38.99
63204;BME280;49297;43.210;27.914;2023-10-09T04:16:59;102123.47;;;14.50;38.76
63204;BME280;49297;43.210;27.914;2023-10-09T04:19:32;102128.34;;;14.44;38.11
63204;BME280;49297;43.210;27.914;2023-10-09T04:22:14;102126.75;;;14.42;37.96
63204;BME280;49297;43.210;27.914;2023-10-09T04:24:53;102124.38;;;14.39;38.16
63204;BME280;49297;43.210;27.914;2023-10-09T04:27:18;102135.28;;;14.36;38.27
63204;BME280;49297;43.210;27.914;2023-10-09T04:29:54;102153.34;;;14.32;38.37
63204;BME280;49297;43.210;27.914;2023-10-09T04:32:20;102149.97;;;14.30;38.17
63204;BME280;49297;43.210;27.914;2023-10-09T04:34:51;102141.97;;;14.30;38.21
63204;BME280;49297;43.210;27.914;2023-10-09T04:37:37;102150.69;;;14.32;38.76
63204;BME280;49297;43.210;27.914;2023-10-09T04:40:04;102144.81;;;14.38;38.16
63204;BME280;49297;43.210;27.914;2023-10-09T04:42:56;102148.34;;;14.39;37.88
63204;BME280;49297;43.210;27.914;2023-10-09T04:45:24;102155.38;;;14.40;37.76
63204;BME280;49297;43.210;27.914;2023-10-09T04:48:09;102159.03;;;14.39;37.67
63204;BME280;49297;43.210;27.914;2023-10-09T04:50:36;102164.97;;;14.31;37.12
63204;BME280;49297;43.210;27.914;2023-10-09T04:53:12;102158.78;;;14.31;37.36
63204;BME280;49297;43.210;27.914;2023-10-09T04:55:44;102151.63;;;14.31;37.43
63204;BME280;49297;43.210;27.914;2023-10-09T04:58:24;102157.56;;;14.35;37.45
63204;BME280;49297;43.210;27.914;2023-10-09T05:00:57;102162.19;;;14.33;37.20
63204;BME280;49297;43.210;27.914;2023-10-09T05:03:23;102156.13;;;14.31;37.00
63204;BME280;49297;43.210;27.914;2023-10-09T05:06:09;102154.59;;;14.28;37.42
63204;BME280;49297;43.210;27.914;2023-10-09T05:08:48;102158.19;;;14.27;37.74
63204;BME280;49297;43.210;27.914;2023-10-09T05:11:14;102166.19;;;14.27;37.52
63204;BME280;49297;43.210;27.914;2023-10-09T05:14:01;102176.72;;;14.28;37.74
63204;BME280;49297;43.210;27.914;2023-10-09T05:16:39;102175.91;;;14.28;37.74
63204;BME280;49297;43.210;27.914;2023-10-09T05:19:23;102168.97;;;14.25;37.57
63204;BME280;49297;43.210;27.914;2023-10-09T05:22:11;102172.25;;;14.29;37.90
63204;BME280;49297;43.210;27.914;2023-10-09T05:25:02;102183.75;;;14.30;37.98
63204;BME280;49297;43.210;27.914;2023-10-09T05:27:28;102180.09;;;14.31;37.74
63204;BME280;49297;43.210;27.914;2023-10-09T05:30:16;102186.28;;;14.31;37.98
63204;BME280;49297;43.210;27.914;2023-10-09T05:32:55;102192.34;;;14.33;37.94
63204;BME280;49297;43.210;27.914;2023-10-09T05:35:24;102192.66;;;14.40;37.22
63204;BME280;49297;43.210;27.914;2023-10-09T05:38:07;102207.03;;;14.48;37.48
63204;BME280;49297;43.210;27.914;2023-10-09T05:40:41;102211.13;;;14.53;36.70
63204;BME280;49297;43.210;27.914;2023-10-09T05:43:10;102215.88;;;14.60;36.58
63204;BME280;49297;43.210;27.914;2023-10-09T05:45:55;102217.78;;;14.70;36.28
63204;BME280;49297;43.210;27.914;2023-10-09T05:48:35;102228.50;;;14.79;36.49
63204;BME280;49297;43.210;27.914;2023-10-09T05:51:03;102233.94;;;14.89;36.49
63204;BME280;49297;43.210;27.914;2023-10-09T05:53:35;102229.88;;;14.95;35.54
63204;BME280;49297;43.210;27.914;2023-10-09T05:56:10;102234.72;;;15.01;35.09
63204;BME280;49297;43.210;27.914;2023-10-09T05:59:08;102238.28;;;15.11;35.08
63204;BME280;49297;43.210;27.914;2023-10-09T06:01:52;102244.66;;;15.20;34.67
63204;BME280;49297;43.210;27.914;2023-10-09T06:04:24;102251.38;;;15.14;33.85
63204;BME280;49297;43.210;27.914;2023-10-09T06:07:15;102253.69;;;15.08;33.85
63204;BME280;49297;43.210;27.914;2023-10-09T06:09:48;102256.66;;;15.04;33.66
63204;BME280;49297;43.210;27.914;2023-10-09T06:12:21;102253.97;;;15.04;34.00
63204;BME280;49297;43.210;27.914;2023-10-09T06:14:59;102259.56;;;15.01;33.82
63204;BME280;49297;43.210;27.914;2023-10-09T06:17:45;102265.03;;;15.00;33.43
63204;BME280;49297;43.210;27.914;2023-10-09T06:20:16;102266.72;;;15.01;33.29
63204;BME280;49297;43.210;27.914;2023-10-09T06:23:02;102264.66;;;15.04;33.73
63204;BME280;49297;43.210;27.914;2023-10-09T06:26:03;102276.16;;;15.05;33.12
63204;BME280;49297;43.210;27.914;2023-10-09T06:28:49;102277.81;;;15.06;32.63
63204;BME280;49297;43.210;27.914;2023-10-09T06:31:34;102280.38;;;15.08;32.35
63204;BME280;49297;43.210;27.914;2023-10-09T06:34:20;102279.41;;;15.09;32.52
63204;BME280;49297;43.210;27.914;2023-10-09T06:36:50;102275.25;;;15.16;32.44
63204;BME280;49297;43.210;27.914;2023-10-09T06:39:19;102275.00;;;15.19;32.29
63204;BME280;49297;43.210;27.914;2023-10-09T06:42:04;102268.28;;;15.25;33.02
63204;BME280;49297;43.210;27.914;2023-10-09T06:45:06;102271.00;;;15.34;32.82
63204;BME280;49297;43.210;27.914;2023-10-09T06:47:33;102278.38;;;15.42;31.26
63204;BME280;49297;43.210;27.914;2023-10-09T06:50:13;102281.63;;;15.46;31.26
63204;BME280;49297;43.210;27.914;2023-10-09T06:52:52;102276.75;;;15.51;31.39
63204;BME280;49297;43.210;27.914;2023-10-09T06:55:37;102283.25;;;15.58;31.25
63204;BME280;49297;43.210;27.914;2023-10-09T06:58:18;102279.91;;;15.66;30.94
63204;BME280;49297;43.210;27.914;2023-10-09T07:01:10;102279.47;;;15.70;30.97
63204;BME280;49297;43.210;27.914;2023-10-09T07:03:45;102278.28;;;15.74;30.19
63204;BME280;49297;43.210;27.914;2023-10-09T07:06:26;102286.75;;;15.79;30.29
63204;BME280;49297;43.210;27.914;2023-10-09T07:09:02;102294.19;;;15.86;30.17
63204;BME280;49297;43.210;27.914;2023-10-09T07:11:40;102280.16;;;15.93;29.64
63204;BME280;49297;43.210;27.914;2023-10-09T07:17:04;102284.41;;;15.96;28.19
63204;BME280;49297;43.210;27.914;2023-10-09T07:19:42;102274.69;;;15.95;28.23
63204;BME280;49297;43.210;27.914;2023-10-09T07:22:09;102279.06;;;15.96;27.95
63204;BME280;49297;43.210;27.914;2023-10-09T07:24:43;102282.56;;;15.96;28.11
63204;BME280;49297;43.210;27.914;2023-10-09T07:27:10;102281.63;;;15.97;28.09
63204;BME280;49297;43.210;27.914;2023-10-09T07:29:38;102280.47;;;16.00;28.62
63204;BME280;49297;43.210;27.914;2023-10-09T07:32:19;102266.16;;;16.01;27.73
63204;BME280;49297;43.210;27.914;2023-10-09T07:34:50;102273.47;;;16.09;27.67
63204;BME280;49297;43.210;27.914;2023-10-09T07:37:23;102273.47;;;16.09;28.40
63204;BME280;49297;43.210;27.914;2023-10-09T07:39:50;102268.44;;;16.15;28.93
63204;BME280;49297;43.210;27.914;2023-10-09T07:42:26;102261.31;;;16.26;28.58
63204;BME280;49297;43.210;27.914;2023-10-09T07:45:03;102265.25;;;16.31;28.03
63204;BME280;49297;43.210;27.914;2023-10-09T07:47:58;102263.81;;;16.27;27.81
63204;BME280;49297;43.210;27.914;2023-10-09T07:50:38;102273.13;;;16.33;27.70
63204;BME280;49297;43.210;27.914;2023-10-09T07:53:07;102263.00;;;16.36;27.78
63204;BME280;49297;43.210;27.914;2023-10-09T07:55:52;102262.84;;;16.38;27.76
63204;BME280;49297;43.210;27.914;2023-10-09T07:58:22;102260.47;;;16.45;27.99
63204;BME280;49297;43.210;27.914;2023-10-09T08:00:52;102261.59;;;16.52;28.11
63204;BME280;49297;43.210;27.914;2023-10-09T08:03:42;102271.47;;;16.61;27.96
63204;BME280;49297;43.210;27.914;2023-10-09T08:06:12;102262.19;;;16.65;28.02
63204;BME280;49297;43.210;27.914;2023-10-09T08:08:56;102260.91;;;16.69;27.78
63204;BME280;49297;43.210;27.914;2023-10-09T08:11:30;102252.34;;;16.75;27.85
63204;BME280;49297;43.210;27.914;2023-10-09T08:14:12;102259.69;;;16.83;28.07
63204;BME280;49297;43.210;27.914;2023-10-09T08:16:50;102257.72;;;16.85;29.01
63204;BME280;49297;43.210;27.914;2023-10-09T08:19:55;102252.50;;;16.84;29.19
63204;BME280;49297;43.210;27.914;2023-10-09T08:22:23;102250.25;;;16.89;29.85
63204;BME280;49297;43.210;27.914;2023-10-09T08:24:49;102249.84;;;16.93;29.77
63204;BME280;49297;43.210;27.914;2023-10-09T08:27:28;102257.44;;;16.88;29.67
63204;BME280;49297;43.210;27.914;2023-10-09T08:29:54;102250.13;;;16.90;29.49
63204;BME280;49297;43.210;27.914;2023-10-09T08:32:40;102247.72;;;16.97;29.70
63204;BME280;49297;43.210;27.914;2023-10-09T08:35:09;102250.22;;;16.99;29.56
63204;BME280;49297;43.210;27.914;2023-10-09T08:37:54;102245.28;;;17.04;30.27
63204;BME280;49297;43.210;27.914;2023-10-09T08:40:20;102249.25;;;17.09;29.99
63204;BME280;49297;43.210;27.914;2023-10-09T08:42:53;102251.22;;;17.17;30.61
63204;BME280;49297;43.210;27.914;2023-10-09T08:45:23;102250.75;;;17.22;30.50
63204;BME280;49297;43.210;27.914;2023-10-09T08:47:53;102245.25;;;17.23;29.98
63204;BME280;49297;43.210;27.914;2023-10-09T08:50:20;102243.59;;;17.22;29.92
63204;BME280;49297;43.210;27.914;2023-10-09T08:52:49;102241.88;;;17.21;29.93
63204;BME280;49297;43.210;27.914;2023-10-09T08:55:15;102249.91;;;17.21;30.19
63204;BME280;49297;43.210;27.914;2023-10-09T08:57:48;102244.44;;;17.23;30.72
63204;BME280;49297;43.210;27.914;2023-10-09T09:00:18;102240.31;;;17.28;30.59
63204;BME280;49297;43.210;27.914;2023-10-09T09:02:55;102237.91;;;17.35;30.83
63204;BME280;49297;43.210;27.914;2023-10-09T09:05:21;102244.09;;;17.45;30.51
63204;BME280;49297;43.210;27.914;2023-10-09T09:07:47;102237.31;;;17.51;30.13
63204;BME280;49297;43.210;27.914;2023-10-09T09:10:28;102237.88;;;17.45;30.07
63204;BME280;49297;43.210;27.914;2023-10-09T09:13:04;102232.53;;;17.45;30.15
63204;BME280;49297;43.210;27.914;2023-10-09T09:15:31;102227.72;;;17.48;30.36
63204;BME280;49297;43.210;27.914;2023-10-09T09:18:08;102232.94;;;17.50;31.01
63204;BME280;49297;43.210;27.914;2023-10-09T09:20:37;102221.38;;;17.49;31.13
63204;BME280;49297;43.210;27.914;2023-10-09T09:23:10;102215.06;;;17.41;30.66
63204;BME280;49297;43.210;27.914;2023-10-09T09:25:45;102211.03;;;17.27;30.94
63204;BME280;49297;43.210;27.914;2023-10-09T09:28:14;102204.44;;;17.21;31.33
63204;BME280;49297;43.210;27.914;2023-10-09T09:30:46;102196.25;;;17.23;31.14
63204;BME280;49297;43.210;27.914;2023-10-09T09:33:24;102203.31;;;17.24;31.37
63204;BME280;49297;43.210;27.914;2023-10-09T09:36:06;102207.66;;;17.25;31.17
63204;BME280;49297;43.210;27.914;2023-10-09T09:38:34;102204.28;;;17.23;31.16
63204;BME280;49297;43.210;27.914;2023-10-09T09:41:26;102192.84;;;17.30;31.70
63204;BME280;49297;43.210;27.914;2023-10-09T09:43:54;102185.34;;;17.34;31.16
63204;BME280;49297;43.210;27.914;2023-10-09T09:46:34;102189.88;;;17.34;30.97
63204;BME280;49297;43.210;27.914;2023-10-09T09:49:01;102185.91;;;17.38;30.72
63204;BME280;49297;43.210;27.914;2023-10-09T09:51:31;102186.78;;;17.38;30.66
63204;BME280;49297;43.210;27.914;2023-10-09T09:53:57;102171.25;;;17.42;30.72
63204;BME280;49297;43.210;27.914;2023-10-09T09:56:28;102171.97;;;17.44;30.51
63204;BME280;49297;43.210;27.914;2023-10-09T09:58:59;102169.41;;;17.42;30.80
63204;BME280;49297;43.210;27.914;2023-10-09T10:01:29;102162.91;;;17.45;30.40
63204;BME280;49297;43.210;27.914;2023-10-09T10:04:12;102162.47;;;17.49;30.76
63204;BME280;49297;43.210;27.914;2023-10-09T10:06:47;102160.34;;;17.53;30.42
63204;BME280;49297;43.210;27.914;2023-10-09T10:09:36;102148.06;;;17.60;30.88
63204;BME280;49297;43.210;27.914;2023-10-09T10:12:10;102148.84;;;17.70;30.76
63204;BME280;49297;43.210;27.914;2023-10-09T10:14:56;102150.34;;;17.83;30.15
63204;BME280;49297;43.210;27.914;2023-10-09T10:23:40;102134.84;;;18.22;29.44
63204;BME280;49297;43.210;27.914;2023-10-09T10:26:22;102131.09;;;18.33;29.34
63204;BME280;49297;43.210;27.914;2023-10-09T10:32:01;102125.09;;;18.39;29.63
63204;BME280;49297;43.210;27.914;2023-10-09T10:35:05;102117.75;;;18.41;29.60
63204;BME280;49297;43.210;27.914;2023-10-09T10:40:10;102112.63;;;18.30;29.88
63204;BME280;49297;43.210;27.914;2023-10-09T10:42:49;102114.38;;;18.21;29.96
63204;BME280;49297;43.210;27.914;2023-10-09T10:45:35;102108.81;;;18.15;30.30
63204;BME280;49297;43.210;27.914;2023-10-09T10:48:05;102111.13;;;18.10;30.51
63204;BME280;49297;43.210;27.914;2023-10-09T10:50:36;102101.13;;;18.02;30.31
63204;BME280;49297;43.210;27.914;2023-10-09T10:53:12;102106.59;;;17.92;30.11
63204;BME280;49297;43.210;27.914;2023-10-09T10:55:58;102096.75;;;17.83;30.70
63204;BME280;49297;43.210;27.914;2023-10-09T10:58:51;102079.41;;;17.87;30.45
63204;BME280;49297;43.210;27.914;2023-10-09T11:01:31;102084.31;;;17.92;29.98
63204;BME280;49297;43.210;27.914;2023-10-09T11:04:27;102068.53;;;17.88;29.89
63204;BME280;49297;43.210;27.914;2023-10-09T11:07:05;102074.06;;;17.87;30.35
63204;BME280;49297;43.210;27.914;2023-10-09T11:10:03;102065.03;;;17.88;30.25
63204;BME280;49297;43.210;27.914;2023-10-09T11:12:31;102060.25;;;17.82;30.59
63204;BME280;49297;43.210;27.914;2023-10-09T11:15:34;102062.38;;;17.78;30.83
63204;BME280;49297;43.210;27.914;2023-10-09T11:18:11;102046.59;;;17.75;30.51
63204;BME280;49297;43.210;27.914;2023-10-09T11:20:52;102054.34;;;17.78;30.54
63204;BME280;49297;43.210;27.914;2023-10-09T11:23:26;102056.19;;;17.78;30.23
63204;BME280;49297;43.210;27.914;2023-10-09T11:26:02;102050.53;;;17.81;30.43
63204;BME280;49297;43.210;27.914;2023-10-09T11:29:14;102056.13;;;17.87;30.21
63204;BME280;49297;43.210;27.914;2023-10-09T11:32:03;102040.53;;;18.01;30.02
63204;BME280;49297;43.210;27.914;2023-10-09T11:34:36;102042.50;;;18.17;29.62
63204;BME280;49297;43.210;27.914;2023-10-09T11:37:23;102031.97;;;18.41;29.47
63204;BME280;49297;43.210;27.914;2023-10-09T11:39:55;102023.56;;;18.71;29.27
63204;BME280;49297;43.210;27.914;2023-10-09T11:42:22;102030.66;;;19.06;28.52
63204;BME280;49297;43.210;27.914;2023-10-09T11:45:24;102011.97;;;19.47;28.25
63204;BME280;49297;43.210;27.914;2023-10-09T11:47:52;102011.53;;;19.76;27.30
63204;BME280;49297;43.210;27.914;2023-10-09T11:50:44;102009.69;;;20.02;27.47
63204;BME280;49297;43.210;27.914;2023-10-09T11:53:22;102009.16;;;20.23;27.09
63204;BME280;49297;43.210;27.914;2023-10-09T11:55:48;102011.31;;;20.52;27.15
63204;BME280;49297;43.210;27.914;2023-10-09T11:58:18;101998.66;;;20.77;26.66
63204;BME280;49297;43.210;27.914;2023-10-09T12:00:57;101999.59;;;21.24;25.94
63204;BME280;49297;43.210;27.914;2023-10-09T12:03:31;101987.56;;;21.66;25.34
63204;BME280;49297;43.210;27.914;2023-10-09T12:06:02;101982.53;;;22.01;25.21
63204;BME280;49297;43.210;27.914;2023-10-09T12:08:32;101976.41;;;22.30;24.79
63204;BME280;49297;43.210;27.914;2023-10-09T12:10:59;101976.78;;;22.57;24.60
63204;BME280;49297;43.210;27.914;2023-10-09T12:13:28;101971.00;;;22.75;24.48
63204;BME280;49297;43.210;27.914;2023-10-09T12:15:54;101964.09;;;22.87;24.62
63204;BME280;49297;43.210;27.914;2023-10-09T12:18:21;101954.75;;;23.05;24.47
63204;BME280;49297;43.210;27.914;2023-10-09T12:20:47;101947.00;;;23.16;24.50
63204;BME280;49297;43.210;27.914;2023-10-09T12:23:18;101942.03;;;23.20;24.43
63204;BME280;49297;43.210;27.914;2023-10-09T12:25:44;101938.06;;;23.16;24.13
63204;BME280;49297;43.210;27.914;2023-10-09T12:28:10;101938.56;;;22.90;24.55
63204;BME280;49297;43.210;27.914;2023-10-09T12:30:40;101932.59;;;22.94;24.48
63204;BME280;49297;43.210;27.914;2023-10-09T12:33:08;101931.69;;;22.87;25.22
63204;BME280;49297;43.210;27.914;2023-10-09T12:35:39;101928.78;;;22.89;25.08
63204;BME280;49297;43.210;27.914;2023-10-09T12:38:06;101929.72;;;22.96;25.38
63204;BME280;49297;43.210;27.914;2023-10-09T12:40:36;101933.16;;;22.90;25.71
63204;BME280;49297;43.210;27.914;2023-10-09T12:43:03;101920.72;;;22.74;25.37
63204;BME280;49297;43.210;27.914;2023-10-09T12:45:29;101923.44;;;22.59;25.67
63204;BME280;49297;43.210;27.914;2023-10-09T12:47:59;101920.75;;;22.44;25.31
63204;BME280;49297;43.210;27.914;2023-10-09T12:50:25;101918.25;;;22.28;26.30
63204;BME280;49297;43.210;27.914;2023-10-09T12:52:57;101925.28;;;22.14;27.23
63204;BME280;49297;43.210;27.914;2023-10-09T12:55:39;101918.22;;;21.98;27.08
63204;BME280;49297;43.210;27.914;2023-10-09T12:58:09;101908.31;;;21.75;27.53
63204;BME280;49297;43.210;27.914;2023-10-09T13:00:37;101902.63;;;21.55;27.65
63204;BME280;49297;43.210;27.914;2023-10-09T13:03:08;101895.69;;;21.29;27.98
63204;BME280;49297;43.210;27.914;2023-10-09T13:08:28;101893.44;;;20.56;28.57
63204;BME280;49297;43.210;27.914;2023-10-09T13:11:01;101886.28;;;20.31;28.59
63204;BME280;49297;43.210;27.914;2023-10-09T13:13:30;101893.13;;;19.94;29.03
63204;BME280;49297;43.210;27.914;2023-10-09T13:16:18;101882.72;;;19.67;29.58
63204;BME280;49297;43.210;27.914;2023-10-09T13:18:57;101874.50;;;19.44;30.49
63204;BME280;49297;43.210;27.914;2023-10-09T13:21:31;101877.88;;;19.29;31.06
63204;BME280;49297;43.210;27.914;2023-10-09T13:23:57;101866.28;;;19.20;31.00
63204;BME280;49297;43.210;27.914;2023-10-09T13:26:24;101863.22;;;19.07;31.50
63204;BME280;49297;43.210;27.914;2023-10-09T13:28:57;101852.84;;;18.96;31.90
63204;BME280;49297;43.210;27.914;2023-10-09T13:31:25;101853.66;;;18.88;32.13
63204;BME280;49297;43.210;27.914;2023-10-09T13:33:55;101845.56;;;18.80;31.79
63204;BME280;49297;43.210;27.914;2023-10-09T13:36:25;101847.38;;;18.71;31.61
63204;BME280;49297;43.210;27.914;2023-10-09T13:38:58;101839.50;;;18.61;31.87